sensor_id;sensor_type;location;lat;lon;timestamp;P1;durP1;ratioP1;P2;durP2;ratioP2
12425;SDS011;6277;49.824;9.562;2023-05-07T00:00:19;1.63;;;1.20;;
12425;SDS011;6277;49.824;9.562;2023-05-07T00:02:45;1.10;;;1.00;;
12425;SDS011;6277;49.824;9.562;2023-05-07T00:05:11;1.15;;;0.80;;
12425;SDS011;6277;49.824;9.562;2023-05-07T00:07:36;2.13;;;0.73;;
12425;SDS011;6277;49.824;9.562;2023-05-07T00:10:02;1.40;;;0.80;;
12425;SDS011;6277;49.824;9.562;2023-05-07T00:12:29;1.00;;;0.70;;
12425;SDS011;6277;49.824;9.562;2023-05-07T00:14:58;1.02;;;0.75;;
12425;SDS011;6277;49.824;9.562;2023-05-07T00:17:25;1.20;;;0.60;;
12425;SDS011;6277;49.824;9.562;2023-05-07T00:19:50;0.70;;;0.50;;
12425;SDS011;6277;49.824;9.562;2023-05-07T00:22:16;0.50;;;0.50;;
12425;SDS011;6277;49.824;9.562;2023-05-07T00:24:42;1.10;;;0.70;;
12425;SDS011;6277;49.824;9.562;2023-05-07T00:27:07;0.75;;;0.75;;
12425;SDS011;6277;49.824;9.562;2023-05-07T00:29:33;0.70;;;0.70;;
12425;SDS011;6277;49.824;9.562;2023-05-07T00:31:59;1.85;;;0.80;;
12425;SDS011;6277;49.824;9.562;2023-05-07T00:34:24;1.25;;;0.60;;
12425;SDS011;6277;49.824;9.562;2023-05-07T00:36:50;3.10;;;1.00;;
12425;SDS011;6277;49.824;9.562;2023-05-07T00:39:15;0.63;;;0.50;;
12425;SDS011;6277;49.824;9.562;2023-05-07T00:41:41;0.98;;;0.73;;
12425;SDS011;6277;49.824;9.562;2023-05-07T00:44:06;0.88;;;0.77;;
12425;SDS011;6277;49.824;9.562;2023-05-07T00:46:32;1.58;;;0.88;;
12425;SDS011;6277;49.824;9.562;2023-05-07T00:48:58;1.08;;;0.80;;
12425;SDS011;6277;49.824;9.562;2023-05-07T00:51:25;1.50;;;0.73;;
12425;SDS011;6277;49.824;9.562;2023-05-07T00:53:52;1.75;;;0.77;;
12425;SDS011;6277;49.824;9.562;2023-05-07T00:56:19;0.80;;;0.63;;
12425;SDS011;6277;49.824;9.562;2023-05-07T00:58:48;0.82;;;0.70;;
12425;SDS011;6277;49.824;9.562;2023-05-07T01:01:14;0.70;;;0.60;;
12425;SDS011;6277;49.824;9.562;2023-05-07T01:03:43;1.23;;;0.80;;
12425;SDS011;6277;49.824;9.562;2023-05-07T01:06:09;1.02;;;0.70;;
12425;SDS011;6277;49.824;9.562;2023-05-07T01:08:37;0.98;;;0.63;;
12425;SDS011;6277;49.824;9.562;2023-05-07T01:11:04;0.88;;;0.80;;
12425;SDS011;6277;49.824;9.562;2023-05-07T01:13:31;2.03;;;0.80;;
12425;SDS011;6277;49.824;9.562;2023-05-07T01:15:58;1.70;;;0.90;;
12425;SDS011;6277;49.824;9.562;2023-05-07T01:18:23;2.25;;;0.73;;
12425;SDS011;6277;49.824;9.562;2023-05-07T01:20:51;1.75;;;0.80;;
12425;SDS011;6277;49.824;9.562;2023-05-07T01:23:16;1.35;;;0.85;;
12425;SDS011;6277;49.824;9.562;2023-05-07T01:25:43;1.40;;;0.90;;
12425;SDS011;6277;49.824;9.562;2023-05-07T01:28:15;2.20;;;0.80;;
12425;SDS011;6277;49.824;9.562;2023-05-07T01:30:41;0.75;;;0.70;;
12425;SDS011;6277;49.824;9.562;2023-05-07T01:33:12;1.40;;;0.90;;
12425;SDS011;6277;49.824;9.562;2023-05-07T01:35:41;1.10;;;0.90;;
12425;SDS011;6277;49.824;9.562;2023-05-07T01:38:10;1.33;;;0.80;;
12425;SDS011;6277;49.824;9.562;2023-05-07T01:40:36;1.85;;;0.80;;
12425;SDS011;6277;49.824;9.562;2023-05-07T01:43:02;0.98;;;0.70;;
12425;SDS011;6277;49.824;9.562;2023-05-07T01:45:28;1.88;;;0.90;;
12425;SDS011;6277;49.824;9.562;2023-05-07T01:47:55;1.08;;;0.90;;
12425;SDS011;6277;49.824;9.562;2023-05-07T01:50:23;1.33;;;0.80;;
12425;SDS011;6277;49.824;9.562;2023-05-07T01:52:49;0.95;;;0.60;;
12425;SDS011;6277;49.824;9.562;2023-05-07T01:55:15;0.88;;;0.70;;
12425;SDS011;6277;49.824;9.562;2023-05-07T01:57:41;0.73;;;0.70;;
12425;SDS011;6277;49.824;9.562;2023-05-07T02:00:07;1.67;;;0.85;;
12425;SDS011;6277;49.824;9.562;2023-05-07T02:02:33;2.08;;;0.95;;
12425;SDS011;6277;49.824;9.562;2023-05-07T02:05:00;0.80;;;0.70;;
12425;SDS011;6277;49.824;9.562;2023-05-07T02:07:26;0.70;;;0.70;;
12425;SDS011;6277;49.824;9.562;2023-05-07T02:09:52;1.23;;;0.80;;
12425;SDS011;6277;49.824;9.562;2023-05-07T02:12:18;1.40;;;0.60;;
12425;SDS011;6277;49.824;9.562;2023-05-07T02:14:44;1.05;;;0.70;;
12425;SDS011;6277;49.824;9.562;2023-05-07T02:17:09;2.08;;;0.80;;
12425;SDS011;6277;49.824;9.562;2023-05-07T02:19:35;1.13;;;0.70;;
12425;SDS011;6277;49.824;9.562;2023-05-07T02:22:00;0.80;;;0.70;;
12425;SDS011;6277;49.824;9.562;2023-05-07T02:24:26;0.90;;;0.80;;
12425;SDS011;6277;49.824;9.562;2023-05-07T02:26:51;0.70;;;0.60;;
12425;SDS011;6277;49.824;9.562;2023-05-07T02:29:17;0.80;;;0.70;;
12425;SDS011;6277;49.824;9.562;2023-05-07T02:31:42;1.40;;;0.80;;
12425;SDS011;6277;49.824;9.562;2023-05-07T02:34:08;1.40;;;0.90;;
12425;SDS011;6277;49.824;9.562;2023-05-07T02:36:33;1.13;;;1.00;;
12425;SDS011;6277;49.824;9.562;2023-05-07T02:38:59;0.80;;;0.80;;
12425;SDS011;6277;49.824;9.562;2023-05-07T02:41:25;1.17;;;0.80;;
12425;SDS011;6277;49.824;9.562;2023-05-07T02:43:51;1.38;;;0.77;;
12425;SDS011;6277;49.824;9.562;2023-05-07T02:46:16;1.08;;;0.90;;
12425;SDS011;6277;49.824;9.562;2023-05-07T02:48:42;0.80;;;0.70;;
12425;SDS011;6277;49.824;9.562;2023-05-07T02:51:07;1.00;;;0.70;;
12425;SDS011;6277;49.824;9.562;2023-05-07T02:53:33;1.15;;;0.80;;
12425;SDS011;6277;49.824;9.562;2023-05-07T02:55:59;1.33;;;0.90;;
12425;SDS011;6277;49.824;9.562;2023-05-07T02:58:25;0.93;;;0.75;;
12425;SDS011;6277;49.824;9.562;2023-05-07T03:00:51;1.33;;;0.90;;
12425;SDS011;6277;49.824;9.562;2023-05-07T03:03:17;1.25;;;0.90;;
12425;SDS011;6277;49.824;9.562;2023-05-07T03:05:42;2.05;;;1.10;;
12425;SDS011;6277;49.824;9.562;2023-05-07T03:08:08;1.25;;;0.93;;
12425;SDS011;6277;49.824;9.562;2023-05-07T03:10:35;1.65;;;1.25;;
12425;SDS011;6277;49.824;9.562;2023-05-07T03:13:01;2.17;;;1.30;;
12425;SDS011;6277;49.824;9.562;2023-05-07T03:15:27;1.23;;;1.02;;
12425;SDS011;6277;49.824;9.562;2023-05-07T03:17:52;2.08;;;1.23;;
12425;SDS011;6277;49.824;9.562;2023-05-07T03:20:18;1.10;;;1.00;;
12425;SDS011;6277;49.824;9.562;2023-05-07T03:22:43;1.70;;;1.20;;
12425;SDS011;6277;49.824;9.562;2023-05-07T03:25:09;1.83;;;1.20;;
12425;SDS011;6277;49.824;9.562;2023-05-07T03:27:35;1.42;;;1.05;;
12425;SDS011;6277;49.824;9.562;2023-05-07T03:30:01;1.38;;;1.00;;
12425;SDS011;6277;49.824;9.562;2023-05-07T03:32:26;1.38;;;0.90;;
12425;SDS011;6277;49.824;9.562;2023-05-07T03:34:52;1.33;;;1.10;;
12425;SDS011;6277;49.824;9.562;2023-05-07T03:37:18;1.38;;;1.27;;
12425;SDS011;6277;49.824;9.562;2023-05-07T03:39:43;1.60;;;1.48;;
12425;SDS011;6277;49.824;9.562;2023-05-07T03:42:09;1.73;;;1.20;;
12425;SDS011;6277;49.824;9.562;2023-05-07T03:44:35;1.20;;;1.10;;
12425;SDS011;6277;49.824;9.562;2023-05-07T03:47:03;1.52;;;1.40;;
12425;SDS011;6277;49.824;9.562;2023-05-07T03:49:29;1.90;;;1.13;;
12425;SDS011;6277;49.824;9.562;2023-05-07T03:51:55;2.15;;;1.40;;
12425;SDS011;6277;49.824;9.562;2023-05-07T03:54:20;1.40;;;1.15;;
12425;SDS011;6277;49.824;9.562;2023-05-07T03:56:46;1.42;;;1.20;;
12425;SDS011;6277;49.824;9.562;2023-05-07T03:59:12;1.48;;;1.20;;
12425;SDS011;6277;49.824;9.562;2023-05-07T04:01:38;3.08;;;1.45;;
12425;SDS011;6277;49.824;9.562;2023-05-07T04:04:03;1.67;;;1.40;;
12425;SDS011;6277;49.824;9.562;2023-05-07T04:06:29;1.55;;;1.40;;
12425;SDS011;6277;49.824;9.562;2023-05-07T04:08:55;1.63;;;1.52;;
12425;SDS011;6277;49.824;9.562;2023-05-07T04:11:20;1.58;;;1.40;;
12425;SDS011;6277;49.824;9.562;2023-05-07T04:13:46;1.70;;;1.58;;
12425;SDS011;6277;49.824;9.562;2023-05-07T04:16:12;2.22;;;1.50;;
12425;SDS011;6277;49.824;9.562;2023-05-07T04:18:37;2.22;;;1.60;;
12425;SDS011;6277;49.824;9.562;2023-05-07T04:21:03;2.10;;;1.63;;
12425;SDS011;6277;49.824;9.562;2023-05-07T04:23:29;2.10;;;1.63;;
12425;SDS011;6277;49.824;9.562;2023-05-07T04:25:54;2.13;;;1.70;;
12425;SDS011;6277;49.824;9.562;2023-05-07T04:28:20;2.30;;;1.70;;
12425;SDS011;6277;49.824;9.562;2023-05-07T04:30:46;2.35;;;1.60;;
12425;SDS011;6277;49.824;9.562;2023-05-07T04:33:13;1.88;;;1.55;;
12425;SDS011;6277;49.824;9.562;2023-05-07T04:35:39;1.83;;;1.67;;
12425;SDS011;6277;49.824;9.562;2023-05-07T04:38:05;2.00;;;1.80;;
12425;SDS011;6277;49.824;9.562;2023-05-07T04:40:30;1.95;;;1.67;;
12425;SDS011;6277;49.824;9.562;2023-05-07T04:42:56;3.13;;;1.85;;
12425;SDS011;6277;49.824;9.562;2023-05-07T04:45:21;2.72;;;2.10;;
12425;SDS011;6277;49.824;9.562;2023-05-07T04:47:47;2.70;;;2.17;;
12425;SDS011;6277;49.824;9.562;2023-05-07T04:50:12;3.08;;;2.17;;
12425;SDS011;6277;49.824;9.562;2023-05-07T04:52:38;3.13;;;2.15;;
12425;SDS011;6277;49.824;9.562;2023-05-07T04:55:04;3.20;;;2.33;;
12425;SDS011;6277;49.824;9.562;2023-05-07T04:57:29;2.63;;;2.00;;
12425;SDS011;6277;49.824;9.562;2023-05-07T04:59:55;3.47;;;1.80;;
12425;SDS011;6277;49.824;9.562;2023-05-07T05:02:21;2.03;;;1.83;;
12425;SDS011;6277;49.824;9.562;2023-05-07T05:04:46;2.25;;;1.83;;
12425;SDS011;6277;49.824;9.562;2023-05-07T05:07:12;2.30;;;2.10;;
12425;SDS011;6277;49.824;9.562;2023-05-07T05:09:38;3.75;;;1.98;;
12425;SDS011;6277;49.824;9.562;2023-05-07T05:12:03;2.42;;;1.98;;
12425;SDS011;6277;49.824;9.562;2023-05-07T05:14:32;2.38;;;2.17;;
12425;SDS011;6277;49.824;9.562;2023-05-07T05:16:57;2.58;;;2.25;;
12425;SDS011;6277;49.824;9.562;2023-05-07T05:19:23;2.97;;;2.38;;
12425;SDS011;6277;49.824;9.562;2023-05-07T05:21:48;2.50;;;2.10;;
12425;SDS011;6277;49.824;9.562;2023-05-07T05:24:14;3.35;;;2.30;;
12425;SDS011;6277;49.824;9.562;2023-05-07T05:26:40;2.60;;;2.38;;
12425;SDS011;6277;49.824;9.562;2023-05-07T05:29:05;3.38;;;2.50;;
12425;SDS011;6277;49.824;9.562;2023-05-07T05:31:31;2.92;;;2.63;;
12425;SDS011;6277;49.824;9.562;2023-05-07T05:33:56;2.35;;;2.15;;
12425;SDS011;6277;49.824;9.562;2023-05-07T05:36:22;2.50;;;2.20;;
12425;SDS011;6277;49.824;9.562;2023-05-07T05:38:47;2.42;;;2.22;;
12425;SDS011;6277;49.824;9.562;2023-05-07T05:41:13;2.85;;;2.63;;
12425;SDS011;6277;49.824;9.562;2023-05-07T05:43:38;2.65;;;2.38;;
12425;SDS011;6277;49.824;9.562;2023-05-07T05:46:04;2.70;;;2.38;;
12425;SDS011;6277;49.824;9.562;2023-05-07T05:48:31;3.58;;;2.40;;
12425;SDS011;6277;49.824;9.562;2023-05-07T05:50:56;3.60;;;2.47;;
12425;SDS011;6277;49.824;9.562;2023-05-07T05:53:22;2.72;;;2.53;;
12425;SDS011;6277;49.824;9.562;2023-05-07T05:55:47;2.70;;;2.47;;
12425;SDS011;6277;49.824;9.562;2023-05-07T05:58:13;3.67;;;2.47;;
12425;SDS011;6277;49.824;9.562;2023-05-07T06:00:40;2.97;;;2.67;;
12425;SDS011;6277;49.824;9.562;2023-05-07T06:03:05;3.20;;;2.90;;
12425;SDS011;6277;49.824;9.562;2023-05-07T06:05:31;3.80;;;2.85;;
12425;SDS011;6277;49.824;9.562;2023-05-07T06:07:57;2.78;;;2.58;;
12425;SDS011;6277;49.824;9.562;2023-05-07T06:10:22;3.42;;;3.10;;
12425;SDS011;6277;49.824;9.562;2023-05-07T06:12:49;3.70;;;2.78;;
12425;SDS011;6277;49.824;9.562;2023-05-07T06:15:14;2.90;;;2.60;;
12425;SDS011;6277;49.824;9.562;2023-05-07T06:17:40;2.75;;;2.53;;
12425;SDS011;6277;49.824;9.562;2023-05-07T06:20:05;3.17;;;2.83;;
12425;SDS011;6277;49.824;9.562;2023-05-07T06:22:31;6.18;;;3.25;;
12425;SDS011;6277;49.824;9.562;2023-05-07T06:24:57;3.17;;;2.88;;
12425;SDS011;6277;49.824;9.562;2023-05-07T06:27:22;3.63;;;3.17;;
12425;SDS011;6277;49.824;9.562;2023-05-07T06:29:48;3.88;;;3.35;;
12425;SDS011;6277;49.824;9.562;2023-05-07T06:32:14;3.60;;;2.85;;
12425;SDS011;6277;49.824;9.562;2023-05-07T06:34:40;3.20;;;2.90;;
12425;SDS011;6277;49.824;9.562;2023-05-07T06:37:06;3.40;;;3.00;;
12425;SDS011;6277;49.824;9.562;2023-05-07T06:39:32;3.05;;;2.80;;
12425;SDS011;6277;49.824;9.562;2023-05-07T06:41:58;3.20;;;2.88;;
12425;SDS011;6277;49.824;9.562;2023-05-07T06:44:24;3.03;;;2.70;;
12425;SDS011;6277;49.824;9.562;2023-05-07T06:46:50;4.00;;;3.40;;
12425;SDS011;6277;49.824;9.562;2023-05-07T06:49:16;3.70;;;3.38;;
12425;SDS011;6277;49.824;9.562;2023-05-07T06:51:41;3.95;;;3.38;;
12425;SDS011;6277;49.824;9.562;2023-05-07T06:54:07;3.35;;;3.03;;
12425;SDS011;6277;49.824;9.562;2023-05-07T06:56:32;4.00;;;3.50;;
12425;SDS011;6277;49.824;9.562;2023-05-07T06:58:59;3.38;;;3.08;;
12425;SDS011;6277;49.824;9.562;2023-05-07T07:01:25;3.63;;;3.28;;
12425;SDS011;6277;49.824;9.562;2023-05-07T07:03:51;3.63;;;3.33;;
12425;SDS011;6277;49.824;9.562;2023-05-07T07:06:17;3.72;;;3.20;;
12425;SDS011;6277;49.824;9.562;2023-05-07T07:08:42;3.60;;;3.30;;
12425;SDS011;6277;49.824;9.562;2023-05-07T07:11:08;3.30;;;2.90;;
12425;SDS011;6277;49.824;9.562;2023-05-07T07:13:35;4.25;;;3.58;;
12425;SDS011;6277;49.824;9.562;2023-05-07T07:16:00;3.90;;;3.10;;
12425;SDS011;6277;49.824;9.562;2023-05-07T07:18:26;3.88;;;3.50;;
12425;SDS011;6277;49.824;9.562;2023-05-07T07:20:51;3.58;;;3.28;;
12425;SDS011;6277;49.824;9.562;2023-05-07T07:23:17;3.40;;;3.10;;
12425;SDS011;6277;49.824;9.562;2023-05-07T07:25:43;3.78;;;3.40;;
12425;SDS011;6277;49.824;9.562;2023-05-07T07:28:08;3.30;;;3.00;;
12425;SDS011;6277;49.824;9.562;2023-05-07T07:30:33;3.40;;;3.10;;
12425;SDS011;6277;49.824;9.562;2023-05-07T07:32:59;3.55;;;3.10;;
12425;SDS011;6277;49.824;9.562;2023-05-07T07:35:28;3.60;;;3.15;;
12425;SDS011;6277;49.824;9.562;2023-05-07T07:37:54;3.75;;;3.45;;
12425;SDS011;6277;49.824;9.562;2023-05-07T07:40:20;4.30;;;3.90;;
12425;SDS011;6277;49.824;9.562;2023-05-07T07:42:45;3.83;;;3.47;;
12425;SDS011;6277;49.824;9.562;2023-05-07T07:45:11;4.53;;;3.80;;
12425;SDS011;6277;49.824;9.562;2023-05-07T07:47:37;3.42;;;3.10;;
12425;SDS011;6277;49.824;9.562;2023-05-07T07:50:03;3.67;;;3.38;;
12425;SDS011;6277;49.824;9.562;2023-05-07T07:52:29;3.90;;;3.50;;
12425;SDS011;6277;49.824;9.562;2023-05-07T07:54:54;3.47;;;3.15;;
12425;SDS011;6277;49.824;9.562;2023-05-07T07:57:20;3.60;;;3.15;;
12425;SDS011;6277;49.824;9.562;2023-05-07T07:59:45;3.80;;;3.47;;
12425;SDS011;6277;49.824;9.562;2023-05-07T08:02:11;3.47;;;3.13;;
12425;SDS011;6277;49.824;9.562;2023-05-07T08:04:37;4.03;;;3.53;;
12425;SDS011;6277;49.824;9.562;2023-05-07T08:07:02;3.97;;;3.58;;
12425;SDS011;6277;49.824;9.562;2023-05-07T08:09:28;3.45;;;3.15;;
12425;SDS011;6277;49.824;9.562;2023-05-07T08:11:54;3.70;;;3.40;;
12425;SDS011;6277;49.824;9.562;2023-05-07T08:14:19;3.85;;;3.47;;
12425;SDS011;6277;49.824;9.562;2023-05-07T08:16:45;4.28;;;3.25;;
12425;SDS011;6277;49.824;9.562;2023-05-07T08:19:10;3.70;;;3.20;;
12425;SDS011;6277;49.824;9.562;2023-05-07T08:21:38;3.97;;;3.33;;
12425;SDS011;6277;49.824;9.562;2023-05-07T08:24:04;3.70;;;3.30;;
12425;SDS011;6277;49.824;9.562;2023-05-07T08:26:30;3.55;;;3.25;;
12425;SDS011;6277;49.824;9.562;2023-05-07T08:28:56;3.50;;;3.13;;
12425;SDS011;6277;49.824;9.562;2023-05-07T08:31:21;3.80;;;3.50;;
12425;SDS011;6277;49.824;9.562;2023-05-07T08:33:49;4.32;;;3.20;;
12425;SDS011;6277;49.824;9.562;2023-05-07T08:36:15;3.45;;;3.15;;
12425;SDS011;6277;49.824;9.562;2023-05-07T08:38:40;4.40;;;3.53;;
12425;SDS011;6277;49.824;9.562;2023-05-07T08:41:09;4.30;;;3.90;;
12425;SDS011;6277;49.824;9.562;2023-05-07T08:43:35;4.20;;;3.35;;
12425;SDS011;6277;49.824;9.562;2023-05-07T08:46:02;4.40;;;4.00;;
12425;SDS011;6277;49.824;9.562;2023-05-07T08:48:31;4.70;;;4.07;;
12425;SDS011;6277;49.824;9.562;2023-05-07T08:50:58;3.63;;;3.30;;
12425;SDS011;6277;49.824;9.562;2023-05-07T08:53:24;3.78;;;3.40;;
12425;SDS011;6277;49.824;9.562;2023-05-07T08:55:50;4.00;;;3.60;;
12425;SDS011;6277;49.824;9.562;2023-05-07T08:58:16;3.47;;;3.17;;
12425;SDS011;6277;49.824;9.562;2023-05-07T09:00:42;4.57;;;2.95;;
12425;SDS011;6277;49.824;9.562;2023-05-07T09:03:08;4.32;;;3.80;;
12425;SDS011;6277;49.824;9.562;2023-05-07T09:05:37;3.72;;;3.33;;
12425;SDS011;6277;49.824;9.562;2023-05-07T09:08:03;3.50;;;3.20;;
12425;SDS011;6277;49.824;9.562;2023-05-07T09:10:29;3.80;;;3.40;;
12425;SDS011;6277;49.824;9.562;2023-05-07T09:12:58;3.80;;;3.50;;
12425;SDS011;6277;49.824;9.562;2023-05-07T09:15:24;3.85;;;3.53;;
12425;SDS011;6277;49.824;9.562;2023-05-07T09:17:51;4.88;;;3.45;;
12425;SDS011;6277;49.824;9.562;2023-05-07T09:20:16;3.72;;;3.17;;
12425;SDS011;6277;49.824;9.562;2023-05-07T09:22:42;3.70;;;3.40;;
12425;SDS011;6277;49.824;9.562;2023-05-07T09:25:09;3.42;;;3.13;;
12425;SDS011;6277;49.824;9.562;2023-05-07T09:27:34;3.45;;;3.13;;
12425;SDS011;6277;49.824;9.562;2023-05-07T09:30:04;3.25;;;2.90;;
12425;SDS011;6277;49.824;9.562;2023-05-07T09:32:34;3.30;;;3.00;;
12425;SDS011;6277;49.824;9.562;2023-05-07T09:35:01;3.47;;;3.17;;
12425;SDS011;6277;49.824;9.562;2023-05-07T09:37:27;3.38;;;3.08;;
12425;SDS011;6277;49.824;9.562;2023-05-07T09:39:53;3.65;;;3.05;;
12425;SDS011;6277;49.824;9.562;2023-05-07T09:42:25;4.47;;;3.30;;
12425;SDS011;6277;49.824;9.562;2023-05-07T09:44:52;3.85;;;3.55;;
12425;SDS011;6277;49.824;9.562;2023-05-07T09:47:20;3.30;;;3.00;;
12425;SDS011;6277;49.824;9.562;2023-05-07T09:49:49;3.22;;;2.92;;
12425;SDS011;6277;49.824;9.562;2023-05-07T09:52:20;3.70;;;3.20;;
12425;SDS011;6277;49.824;9.562;2023-05-07T09:54:46;3.05;;;2.78;;
12425;SDS011;6277;49.824;9.562;2023-05-07T09:57:14;2.72;;;2.53;;
12425;SDS011;6277;49.824;9.562;2023-05-07T09:59:42;3.30;;;3.00;;
12425;SDS011;6277;49.824;9.562;2023-05-07T10:02:09;3.30;;;3.00;;
12425;SDS011;6277;49.824;9.562;2023-05-07T10:04:35;2.92;;;2.63;;
12425;SDS011;6277;49.824;9.562;2023-05-07T10:07:01;3.80;;;3.00;;
12425;SDS011;6277;49.824;9.562;2023-05-07T10:09:28;3.30;;;3.00;;
12425;SDS011;6277;49.824;9.562;2023-05-07T10:11:55;3.80;;;2.83;;
12425;SDS011;6277;49.824;9.562;2023-05-07T10:14:22;3.28;;;2.83;;
12425;SDS011;6277;49.824;9.562;2023-05-07T10:16:48;3.22;;;2.92;;
12425;SDS011;6277;49.824;9.562;2023-05-07T10:19:14;2.78;;;2.58;;
12425;SDS011;6277;49.824;9.562;2023-05-07T10:21:43;3.08;;;2.67;;
12425;SDS011;6277;49.824;9.562;2023-05-07T10:24:16;3.10;;;2.40;;
12425;SDS011;6277;49.824;9.562;2023-05-07T10:26:47;3.03;;;2.60;;
12425;SDS011;6277;49.824;9.562;2023-05-07T10:29:18;2.92;;;2.50;;
12425;SDS011;6277;49.824;9.562;2023-05-07T10:32:10;3.25;;;2.85;;
12425;SDS011;6277;49.824;9.562;2023-05-07T10:34:52;3.30;;;3.00;;
12425;SDS011;6277;49.824;9.562;2023-05-07T10:37:20;3.92;;;3.17;;
12425;SDS011;6277;49.824;9.562;2023-05-07T10:39:46;3.20;;;2.90;;
12425;SDS011;6277;49.824;9.562;2023-05-07T10:42:12;4.43;;;2.85;;
12425;SDS011;6277;49.824;9.562;2023-05-07T10:44:39;3.00;;;2.60;;
12425;SDS011;6277;49.824;9.562;2023-05-07T10:47:09;2.72;;;2.53;;
12425;SDS011;6277;49.824;9.562;2023-05-07T10:49:36;2.92;;;2.60;;
12425;SDS011;6277;49.824;9.562;2023-05-07T10:52:22;4.25;;;2.70;;
12425;SDS011;6277;49.824;9.562;2023-05-07T10:55:33;3.67;;;2.85;;
12425;SDS011;6277;49.824;9.562;2023-05-07T10:57:39;3.10;;;2.70;;
12425;SDS011;6277;49.824;9.562;2023-05-07T11:00:47;3.10;;;2.80;;
12425;SDS011;6277;49.824;9.562;2023-05-07T11:05:29;4.22;;;3.83;;
12425;SDS011;6277;49.824;9.562;2023-05-07T11:07:57;3.20;;;2.90;;
12425;SDS011;6277;49.824;9.562;2023-05-07T11:10:23;3.55;;;3.00;;
12425;SDS011;6277;49.824;9.562;2023-05-07T11:13:16;2.55;;;2.28;;
12425;SDS011;6277;49.824;9.562;2023-05-07T11:15:43;2.47;;;2.28;;
12425;SDS011;6277;49.824;9.562;2023-05-07T11:18:13;13.93;;;2.50;;
12425;SDS011;6277;49.824;9.562;2023-05-07T11:20:44;2.55;;;2.35;;
12425;SDS011;6277;49.824;9.562;2023-05-07T11:23:54;2.38;;;2.17;;
12425;SDS011;6277;49.824;9.562;2023-05-07T11:26:09;2.70;;;2.50;;
12425;SDS011;6277;49.824;9.562;2023-05-07T11:28:42;3.25;;;2.25;;
12425;SDS011;6277;49.824;9.562;2023-05-07T11:31:08;2.67;;;2.30;;
12425;SDS011;6277;49.824;9.562;2023-05-07T11:33:35;2.28;;;2.08;;
12425;SDS011;6277;49.824;9.562;2023-05-07T11:36:02;3.25;;;2.55;;
12425;SDS011;6277;49.824;9.562;2023-05-07T11:38:35;2.58;;;2.30;;
12425;SDS011;6277;49.824;9.562;2023-05-07T11:41:03;2.65;;;2.45;;
12425;SDS011;6277;49.824;9.562;2023-05-07T11:43:30;2.28;;;2.08;;
12425;SDS011;6277;49.824;9.562;2023-05-07T11:46:04;2.47;;;2.08;;
12425;SDS011;6277;49.824;9.562;2023-05-07T11:48:32;2.30;;;2.10;;
12425;SDS011;6277;49.824;9.562;2023-05-07T11:53:27;2.17;;;2.03;;
12425;SDS011;6277;49.824;9.562;2023-05-07T11:55:59;2.13;;;1.92;;
12425;SDS011;6277;49.824;9.562;2023-05-07T11:58:25;2.20;;;2.00;;
12425;SDS011;6277;49.824;9.562;2023-05-07T12:00:53;2.30;;;1.77;;
12425;SDS011;6277;49.824;9.562;2023-05-07T12:03:19;2.15;;;1.73;;
12425;SDS011;6277;49.824;9.562;2023-05-07T12:05:46;2.63;;;1.88;;
12425;SDS011;6277;49.824;9.562;2023-05-07T12:08:15;1.98;;;1.63;;
12425;SDS011;6277;49.824;9.562;2023-05-07T12:10:41;1.88;;;1.67;;
12425;SDS011;6277;49.824;9.562;2023-05-07T12:13:17;2.45;;;1.98;;
12425;SDS011;6277;49.824;9.562;2023-05-07T12:15:44;1.92;;;1.60;;
12425;SDS011;6277;49.824;9.562;2023-05-07T12:18:10;2.67;;;1.80;;
12425;SDS011;6277;49.824;9.562;2023-05-07T12:20:36;1.48;;;1.38;;
12425;SDS011;6277;49.824;9.562;2023-05-07T12:23:02;1.65;;;1.42;;
12425;SDS011;6277;49.824;9.562;2023-05-07T12:25:31;2.00;;;1.80;;
12425;SDS011;6277;49.824;9.562;2023-05-07T12:28:01;1.45;;;1.35;;
12425;SDS011;6277;49.824;9.562;2023-05-07T12:30:29;1.92;;;1.38;;
12425;SDS011;6277;49.824;9.562;2023-05-07T12:32:56;1.73;;;1.55;;
12425;SDS011;6277;49.824;9.562;2023-05-07T12:35:31;1.55;;;1.38;;
12425;SDS011;6277;49.824;9.562;2023-05-07T12:38:01;1.40;;;1.23;;
12425;SDS011;6277;49.824;9.562;2023-05-07T12:41:02;1.75;;;1.35;;
12425;SDS011;6277;49.824;9.562;2023-05-07T12:43:21;1.52;;;1.10;;
12425;SDS011;6277;49.824;9.562;2023-05-07T12:45:50;1.40;;;1.30;;
12425;SDS011;6277;49.824;9.562;2023-05-07T12:48:19;1.15;;;0.98;;
12425;SDS011;6277;49.824;9.562;2023-05-07T12:50:45;1.02;;;0.93;;
12425;SDS011;6277;49.824;9.562;2023-05-07T12:53:13;1.30;;;0.98;;
12425;SDS011;6277;49.824;9.562;2023-05-07T12:55:43;1.15;;;0.90;;
12425;SDS011;6277;49.824;9.562;2023-05-07T12:58:29;1.50;;;1.00;;
12425;SDS011;6277;49.824;9.562;2023-05-07T13:00:58;1.27;;;1.15;;
12425;SDS011;6277;49.824;9.562;2023-05-07T13:03:26;2.88;;;1.67;;
12425;SDS011;6277;49.824;9.562;2023-05-07T13:05:52;3.67;;;1.70;;
12425;SDS011;6277;49.824;9.562;2023-05-07T13:08:38;1.48;;;1.20;;
12425;SDS011;6277;49.824;9.562;2023-05-07T13:11:08;1.42;;;0.95;;
12425;SDS011;6277;49.824;9.562;2023-05-07T13:13:35;1.80;;;1.10;;
12425;SDS011;6277;49.824;9.562;2023-05-07T13:16:02;1.50;;;0.93;;
12425;SDS011;6277;49.824;9.562;2023-05-07T13:18:31;1.08;;;0.80;;
12425;SDS011;6277;49.824;9.562;2023-05-07T13:20:57;1.33;;;1.00;;
12425;SDS011;6277;49.824;9.562;2023-05-07T13:23:23;2.80;;;1.48;;
12425;SDS011;6277;49.824;9.562;2023-05-07T13:25:49;1.40;;;1.30;;
12425;SDS011;6277;49.824;9.562;2023-05-07T13:28:15;1.00;;;0.90;;
12425;SDS011;6277;49.824;9.562;2023-05-07T13:30:41;1.13;;;0.80;;
12425;SDS011;6277;49.824;9.562;2023-05-07T13:33:07;0.82;;;0.70;;
12425;SDS011;6277;49.824;9.562;2023-05-07T13:35:33;0.77;;;0.70;;
12425;SDS011;6277;49.824;9.562;2023-05-07T13:37:59;1.23;;;0.70;;
12425;SDS011;6277;49.824;9.562;2023-05-07T13:40:25;0.90;;;0.70;;
12425;SDS011;6277;49.824;9.562;2023-05-07T13:42:50;1.10;;;0.90;;
12425;SDS011;6277;49.824;9.562;2023-05-07T13:45:17;1.17;;;0.70;;
12425;SDS011;6277;49.824;9.562;2023-05-07T13:47:43;0.68;;;0.68;;
12425;SDS011;6277;49.824;9.562;2023-05-07T13:50:10;1.50;;;1.00;;
12425;SDS011;6277;49.824;9.562;2023-05-07T13:52:40;1.98;;;0.65;;
12425;SDS011;6277;49.824;9.562;2023-05-07T13:55:08;1.27;;;0.90;;
12425;SDS011;6277;49.824;9.562;2023-05-07T13:57:34;0.90;;;0.80;;
12425;SDS011;6277;49.824;9.562;2023-05-07T14:00:00;0.75;;;0.70;;
12425;SDS011;6277;49.824;9.562;2023-05-07T14:02:25;2.45;;;0.90;;
12425;SDS011;6277;49.824;9.562;2023-05-07T14:04:51;1.58;;;1.20;;
12425;SDS011;6277;49.824;9.562;2023-05-07T14:07:16;1.40;;;1.30;;
12425;SDS011;6277;49.824;9.562;2023-05-07T14:09:42;1.52;;;1.27;;
12425;SDS011;6277;49.824;9.562;2023-05-07T14:12:07;1.05;;;0.95;;
12425;SDS011;6277;49.824;9.562;2023-05-07T14:14:33;2.33;;;1.00;;
12425;SDS011;6277;49.824;9.562;2023-05-07T14:16:59;1.38;;;1.05;;
12425;SDS011;6277;49.824;9.562;2023-05-07T14:19:24;1.95;;;0.98;;
12425;SDS011;6277;49.824;9.562;2023-05-07T14:21:50;0.90;;;0.90;;
12425;SDS011;6277;49.824;9.562;2023-05-07T14:24:15;1.90;;;0.98;;
12425;SDS011;6277;49.824;9.562;2023-05-07T14:26:41;1.10;;;1.00;;
12425;SDS011;6277;49.824;9.562;2023-05-07T14:29:06;0.98;;;0.80;;
12425;SDS011;6277;49.824;9.562;2023-05-07T14:31:32;0.77;;;0.77;;
12425;SDS011;6277;49.824;9.562;2023-05-07T14:33:58;1.00;;;0.85;;
12425;SDS011;6277;49.824;9.562;2023-05-07T14:36:24;0.80;;;0.80;;
12425;SDS011;6277;49.824;9.562;2023-05-07T14:38:51;1.05;;;0.82;;
12425;SDS011;6277;49.824;9.562;2023-05-07T14:41:18;1.08;;;0.98;;
12425;SDS011;6277;49.824;9.562;2023-05-07T14:43:45;1.90;;;0.85;;
12425;SDS011;6277;49.824;9.562;2023-05-07T14:46:15;0.88;;;0.70;;
12425;SDS011;6277;49.824;9.562;2023-05-07T14:48:42;1.67;;;0.90;;
12425;SDS011;6277;49.824;9.562;2023-05-07T14:51:08;1.00;;;0.80;;
12425;SDS011;6277;49.824;9.562;2023-05-07T14:53:34;0.80;;;0.80;;
12425;SDS011;6277;49.824;9.562;2023-05-07T14:56:00;1.05;;;0.95;;
12425;SDS011;6277;49.824;9.562;2023-05-07T14:58:25;1.25;;;0.93;;
12425;SDS011;6277;49.824;9.562;2023-05-07T15:00:51;1.40;;;0.90;;
12425;SDS011;6277;49.824;9.562;2023-05-07T15:03:16;1.10;;;0.95;;